sensor_id;sensor_type;location;lat;lon;timestamp;temperature;humidity
8436;DHT22;4255;48.730;9.156;2023-03-26T00:00:03;9.10;99.90
8436;DHT22;4255;48.730;9.156;2023-03-26T00:02:30;9.00;99.90
8436;DHT22;4255;48.730;9.156;2023-03-26T00:04:55;8.90;99.90
8436;DHT22;4255;48.730;9.156;2023-03-26T00:07:21;8.90;99.90
8436;DHT22;4255;48.730;9.156;2023-03-26T00:09:47;8.90;99.90
8436;DHT22;4255;48.730;9.156;2023-03-26T00:12:12;8.90;99.90
8436;DHT22;4255;48.730;9.156;2023-03-26T00:14:38;8.70;99.90
8436;DHT22;4255;48.730;9.156;2023-03-26T00:17:05;8.60;99.90
8436;DHT22;4255;48.730;9.156;2023-03-26T00:19:30;8.60;99.90
8436;DHT22;4255;48.730;9.156;2023-03-26T00:21:56;8.60;99.90
8436;DHT22;4255;48.730;9.156;2023-03-26T00:24:22;8.60;99.90
8436;DHT22;4255;48.730;9.156;2023-03-26T00:26:54;8.60;99.90
8436;DHT22;4255;48.730;9.156;2023-03-26T00:29:20;8.60;99.90
8436;DHT22;4255;48.730;9.156;2023-03-26T00:31:47;8.60;99.90
8436;DHT22;4255;48.730;9.156;2023-03-26T00:34:13;8.60;99.90
8436;DHT22;4255;48.730;9.156;2023-03-26T00:36:42;8.60;99.90
8436;DHT22;4255;48.730;9.156;2023-03-26T00:39:08;8.60;99.90
8436;DHT22;4255;48.730;9.156;2023-03-26T00:41:34;8.50;99.90
8436;DHT22;4255;48.730;9.156;2023-03-26T00:44:01;8.50;99.90
8436;DHT22;4255;48.730;9.156;2023-03-26T00:46:29;8.50;99.90
8436;DHT22;4255;48.730;9.156;2023-03-26T00:48:55;8.30;99.90
8436;DHT22;4255;48.730;9.156;2023-03-26T00:51:25;8.30;99.90
8436;DHT22;4255;48.730;9.156;2023-03-26T00:53:50;8.30;99.90
8436;DHT22;4255;48.730;9.156;2023-03-26T00:56:16;8.20;99.90
8436;DHT22;4255;48.730;9.156;2023-03-26T00:58:43;8.20;99.90
8436;DHT22;4255;48.730;9.156;2023-03-26T01:01:21;8.20;99.90
8436;DHT22;4255;48.730;9.156;2023-03-26T01:03:52;8.20;99.90
8436;DHT22;4255;48.730;9.156;2023-03-26T01:06:33;8.20;99.90
8436;DHT22;4255;48.730;9.156;2023-03-26T01:09:16;8.10;99.90
8436;DHT22;4255;48.730;9.156;2023-03-26T01:11:43;8.00;99.90
8436;DHT22;4255;48.730;9.156;2023-03-26T01:14:21;8.00;99.90
8436;DHT22;4255;48.730;9.156;2023-03-26T01:16:53;7.90;99.90
8436;DHT22;4255;48.730;9.156;2023-03-26T01:22:16;8.00;99.90
8436;DHT22;4255;48.730;9.156;2023-03-26T01:24:42;8.00;99.90
8436;DHT22;4255;48.730;9.156;2023-03-26T01:35:48;8.00;99.90
8436;DHT22;4255;48.730;9.156;2023-03-26T01:38:40;8.00;99.90
8436;DHT22;4255;48.730;9.156;2023-03-26T01:46:32;8.10;99.90
8436;DHT22;4255;48.730;9.156;2023-03-26T01:49:04;8.00;99.90
8436;DHT22;4255;48.730;9.156;2023-03-26T01:51:33;8.00;99.90
8436;DHT22;4255;48.730;9.156;2023-03-26T01:54:01;8.00;99.90
8436;DHT22;4255;48.730;9.156;2023-03-26T01:56:53;8.00;99.90
8436;DHT22;4255;48.730;9.156;2023-03-26T02:00:05;8.20;99.90
8436;DHT22;4255;48.730;9.156;2023-03-26T02:03:00;8.30;99.90
8436;DHT22;4255;48.730;9.156;2023-03-26T02:05:42;8.30;99.90
8436;DHT22;4255;48.730;9.156;2023-03-26T02:08:32;8.40;99.90
8436;DHT22;4255;48.730;9.156;2023-03-26T02:11:08;8.40;99.90
8436;DHT22;4255;48.730;9.156;2023-03-26T02:13:42;8.40;99.90
8436;DHT22;4255;48.730;9.156;2023-03-26T02:16:13;8.30;99.90
8436;DHT22;4255;48.730;9.156;2023-03-26T02:18:42;8.30;99.90
8436;DHT22;4255;48.730;9.156;2023-03-26T02:21:17;8.40;99.90
8436;DHT22;4255;48.730;9.156;2023-03-26T02:23:54;8.40;99.90
8436;DHT22;4255;48.730;9.156;2023-03-26T02:26:28;8.30;99.90
8436;DHT22;4255;48.730;9.156;2023-03-26T02:28:54;8.30;99.90
8436;DHT22;4255;48.730;9.156;2023-03-26T02:31:21;8.30;99.90
8436;DHT22;4255;48.730;9.156;2023-03-26T02:37:12;8.10;99.90
8436;DHT22;4255;48.730;9.156;2023-03-26T02:39:38;8.00;99.90
8436;DHT22;4255;48.730;9.156;2023-03-26T02:42:03;8.00;99.90
8436;DHT22;4255;48.730;9.156;2023-03-26T02:44:29;8.00;99.90
8436;DHT22;4255;48.730;9.156;2023-03-26T02:46:55;7.90;99.90
8436;DHT22;4255;48.730;9.156;2023-03-26T02:49:20;7.80;99.90
8436;DHT22;4255;48.730;9.156;2023-03-26T02:51:46;7.80;99.90
8436;DHT22;4255;48.730;9.156;2023-03-26T02:54:11;7.80;99.90
8436;DHT22;4255;48.730;9.156;2023-03-26T02:56:37;7.80;99.90
8436;DHT22;4255;48.730;9.156;2023-03-26T02:59:03;7.90;99.90
8436;DHT22;4255;48.730;9.156;2023-03-26T03:01:29;7.90;99.90
8436;DHT22;4255;48.730;9.156;2023-03-26T03:03:55;7.90;99.90
8436;DHT22;4255;48.730;9.156;2023-03-26T03:06:20;7.90;99.90
8436;DHT22;4255;48.730;9.156;2023-03-26T03:08:47;8.00;99.90
8436;DHT22;4255;48.730;9.156;2023-03-26T03:11:15;8.20;99.90
8436;DHT22;4255;48.730;9.156;2023-03-26T03:13:42;8.20;99.90
8436;DHT22;4255;48.730;9.156;2023-03-26T03:16:08;8.30;99.90
8436;DHT22;4255;48.730;9.156;2023-03-26T03:18:34;8.30;99.90
8436;DHT22;4255;48.730;9.156;2023-03-26T03:21:01;8.40;99.90
8436;DHT22;4255;48.730;9.156;2023-03-26T03:23:27;8.50;99.90
8436;DHT22;4255;48.730;9.156;2023-03-26T03:25:53;8.60;99.90
8436;DHT22;4255;48.730;9.156;2023-03-26T03:28:22;8.70;99.90
8436;DHT22;4255;48.730;9.156;2023-03-26T03:30:48;8.80;99.90
8436;DHT22;4255;48.730;9.156;2023-03-26T03:33:18;8.90;99.90
8436;DHT22;4255;48.730;9.156;2023-03-26T03:35:45;8.90;99.90
8436;DHT22;4255;48.730;9.156;2023-03-26T03:38:12;8.90;99.90
8436;DHT22;4255;48.730;9.156;2023-03-26T03:40:37;8.90;99.90
8436;DHT22;4255;48.730;9.156;2023-03-26T03:43:03;8.90;99.90
8436;DHT22;4255;48.730;9.156;2023-03-26T03:45:29;8.90;99.90
8436;DHT22;4255;48.730;9.156;2023-03-26T03:47:54;8.90;99.90
8436;DHT22;4255;48.730;9.156;2023-03-26T03:50:20;9.00;99.90
8436;DHT22;4255;48.730;9.156;2023-03-26T03:52:45;9.00;99.90
8436;DHT22;4255;48.730;9.156;2023-03-26T03:55:11;8.90;99.90
8436;DHT22;4255;48.730;9.156;2023-03-26T03:57:38;8.70;99.90
8436;DHT22;4255;48.730;9.156;2023-03-26T04:00:05;8.80;99.90
8436;DHT22;4255;48.730;9.156;2023-03-26T04:02:33;8.80;99.90
8436;DHT22;4255;48.730;9.156;2023-03-26T04:05:00;8.80;99.90
8436;DHT22;4255;48.730;9.156;2023-03-26T04:07:27;8.80;99.90
8436;DHT22;4255;48.730;9.156;2023-03-26T04:09:55;8.80;99.90
8436;DHT22;4255;48.730;9.156;2023-03-26T04:12:21;8.70;99.90
8436;DHT22;4255;48.730;9.156;2023-03-26T04:14:47;8.70;99.90
8436;DHT22;4255;48.730;9.156;2023-03-26T04:17:13;8.80;99.90
8436;DHT22;4255;48.730;9.156;2023-03-26T04:19:40;8.70;99.90
8436;DHT22;4255;48.730;9.156;2023-03-26T04:22:06;8.80;99.90
8436;DHT22;4255;48.730;9.156;2023-03-26T04:24:32;8.70;99.90
8436;DHT22;4255;48.730;9.156;2023-03-26T04:27:10;8.70;99.90
8436;DHT22;4255;48.730;9.156;2023-03-26T04:29:43;8.70;99.90
8436;DHT22;4255;48.730;9.156;2023-03-26T04:32:15;8.80;99.90
8436;DHT22;4255;48.730;9.156;2023-03-26T04:34:44;8.70;99.90
8436;DHT22;4255;48.730;9.156;2023-03-26T04:37:27;8.80;99.90
8436;DHT22;4255;48.730;9.156;2023-03-26T04:39:56;8.90;99.90
8436;DHT22;4255;48.730;9.156;2023-03-26T04:42:22;9.10;99.90
8436;DHT22;4255;48.730;9.156;2023-03-26T04:44:48;9.20;99.90
8436;DHT22;4255;48.730;9.156;2023-03-26T04:47:19;9.20;99.90
8436;DHT22;4255;48.730;9.156;2023-03-26T04:49:45;9.10;99.90
8436;DHT22;4255;48.730;9.156;2023-03-26T04:52:12;9.20;99.90
8436;DHT22;4255;48.730;9.156;2023-03-26T04:54:38;9.20;99.90
8436;DHT22;4255;48.730;9.156;2023-03-26T04:57:12;9.20;99.90
8436;DHT22;4255;48.730;9.156;2023-03-26T04:59:40;9.20;99.90
8436;DHT22;4255;48.730;9.156;2023-03-26T05:02:07;9.20;99.90
8436;DHT22;4255;48.730;9.156;2023-03-26T05:04:33;9.20;99.90
8436;DHT22;4255;48.730;9.156;2023-03-26T05:07:01;9.20;99.90
8436;DHT22;4255;48.730;9.156;2023-03-26T05:09:27;9.30;99.90
8436;DHT22;4255;48.730;9.156;2023-03-26T05:11:53;9.30;99.90
8436;DHT22;4255;48.730;9.156;2023-03-26T05:14:18;9.10;99.90
8436;DHT22;4255;48.730;9.156;2023-03-26T05:16:45;9.20;99.90
8436;DHT22;4255;48.730;9.156;2023-03-26T05:19:12;9.30;99.90
8436;DHT22;4255;48.730;9.156;2023-03-26T05:21:37;9.30;99.90
8436;DHT22;4255;48.730;9.156;2023-03-26T05:24:03;9.40;99.90
8436;DHT22;4255;48.730;9.156;2023-03-26T05:26:31;9.50;99.90
8436;DHT22;4255;48.730;9.156;2023-03-26T05:28:57;9.40;99.90
8436;DHT22;4255;48.730;9.156;2023-03-26T05:31:23;9.40;99.90
8436;DHT22;4255;48.730;9.156;2023-03-26T05:33:49;9.40;99.90
8436;DHT22;4255;48.730;9.156;2023-03-26T05:36:15;9.40;99.90
8436;DHT22;4255;48.730;9.156;2023-03-26T05:38:42;9.10;99.90
8436;DHT22;4255;48.730;9.156;2023-03-26T05:41:11;9.10;99.90
8436;DHT22;4255;48.730;9.156;2023-03-26T05:43:37;9.10;99.90
8436;DHT22;4255;48.730;9.156;2023-03-26T05:46:03;9.10;99.90
8436;DHT22;4255;48.730;9.156;2023-03-26T05:48:29;9.10;99.90
8436;DHT22;4255;48.730;9.156;2023-03-26T05:50:56;9.20;99.90
8436;DHT22;4255;48.730;9.156;2023-03-26T05:53:24;9.20;99.90
8436;DHT22;4255;48.730;9.156;2023-03-26T05:55:50;9.10;99.90
8436;DHT22;4255;48.730;9.156;2023-03-26T05:58:23;9.10;99.90
8436;DHT22;4255;48.730;9.156;2023-03-26T06:00:57;9.00;99.90
8436;DHT22;4255;48.730;9.156;2023-03-26T06:03:24;9.10;99.90
8436;DHT22;4255;48.730;9.156;2023-03-26T06:05:50;9.30;99.90
8436;DHT22;4255;48.730;9.156;2023-03-26T06:08:16;9.30;99.90
8436;DHT22;4255;48.730;9.156;2023-03-26T06:10:43;9.30;99.90
8436;DHT22;4255;48.730;9.156;2023-03-26T06:13:09;9.30;99.90
8436;DHT22;4255;48.730;9.156;2023-03-26T06:15:36;9.40;99.90
8436;DHT22;4255;48.730;9.156;2023-03-26T06:18:02;9.50;99.90
8436;DHT22;4255;48.730;9.156;2023-03-26T06:20:27;9.50;99.90
8436;DHT22;4255;48.730;9.156;2023-03-26T06:22:53;9.40;99.90
8436;DHT22;4255;48.730;9.156;2023-03-26T06:25:19;9.50;99.90
8436;DHT22;4255;48.730;9.156;2023-03-26T06:27:45;9.30;99.90
8436;DHT22;4255;48.730;9.156;2023-03-26T06:30:11;9.40;99.90
8436;DHT22;4255;48.730;9.156;2023-03-26T06:32:37;9.30;99.90
8436;DHT22;4255;48.730;9.156;2023-03-26T06:35:02;9.40;99.90
8436;DHT22;4255;48.730;9.156;2023-03-26T06:37:28;9.40;99.90
8436;DHT22;4255;48.730;9.156;2023-03-26T06:39:54;9.40;99.90
8436;DHT22;4255;48.730;9.156;2023-03-26T06:42:19;9.30;99.90
8436;DHT22;4255;48.730;9.156;2023-03-26T06:44:45;9.30;99.90
8436;DHT22;4255;48.730;9.156;2023-03-26T06:47:10;9.40;99.90
8436;DHT22;4255;48.730;9.156;2023-03-26T06:49:36;9.40;99.90
8436;DHT22;4255;48.730;9.156;2023-03-26T06:52:02;9.50;99.90
8436;DHT22;4255;48.730;9.156;2023-03-26T06:54:28;9.50;99.90
8436;DHT22;4255;48.730;9.156;2023-03-26T06:56:54;9.60;99.90
8436;DHT22;4255;48.730;9.156;2023-03-26T06:59:20;9.70;99.90
8436;DHT22;4255;48.730;9.156;2023-03-26T07:01:46;9.60;99.90
8436;DHT22;4255;48.730;9.156;2023-03-26T07:04:12;9.50;99.90
8436;DHT22;4255;48.730;9.156;2023-03-26T07:06:37;9.50;99.90
8436;DHT22;4255;48.730;9.156;2023-03-26T07:09:03;9.50;99.90
8436;DHT22;4255;48.730;9.156;2023-03-26T07:11:29;9.60;99.90
8436;DHT22;4255;48.730;9.156;2023-03-26T07:13:54;9.70;99.90
8436;DHT22;4255;48.730;9.156;2023-03-26T07:16:24;9.80;99.90
8436;DHT22;4255;48.730;9.156;2023-03-26T07:18:49;9.70;99.90
8436;DHT22;4255;48.730;9.156;2023-03-26T07:21:16;9.70;99.90
8436;DHT22;4255;48.730;9.156;2023-03-26T07:23:42;9.70;99.90
8436;DHT22;4255;48.730;9.156;2023-03-26T07:31:50;9.40;99.90
8436;DHT22;4255;48.730;9.156;2023-03-26T07:40:11;9.20;99.90
8436;DHT22;4255;48.730;9.156;2023-03-26T07:42:48;9.40;99.90
8436;DHT22;4255;48.730;9.156;2023-03-26T07:48:00;9.30;99.90
8436;DHT22;4255;48.730;9.156;2023-03-26T07:50:26;9.30;99.90
8436;DHT22;4255;48.730;9.156;2023-03-26T07:52:52;9.20;99.90
8436;DHT22;4255;48.730;9.156;2023-03-26T07:55:18;9.20;99.90
8436;DHT22;4255;48.730;9.156;2023-03-26T08:00:55;9.40;99.90
8436;DHT22;4255;48.730;9.156;2023-03-26T08:06:31;9.40;99.90
8436;DHT22;4255;48.730;9.156;2023-03-26T08:12:27;9.30;99.90
8436;DHT22;4255;48.730;9.156;2023-03-26T08:17:30;8.80;99.90
8436;DHT22;4255;48.730;9.156;2023-03-26T08:20:10;8.80;99.90
8436;DHT22;4255;48.730;9.156;2023-03-26T08:22:41;8.80;99.90
8436;DHT22;4255;48.730;9.156;2023-03-26T08:25:26;8.80;99.90
8436;DHT22;4255;48.730;9.156;2023-03-26T08:28:15;8.70;99.90
8436;DHT22;4255;48.730;9.156;2023-03-26T08:30:42;8.80;99.90
8436;DHT22;4255;48.730;9.156;2023-03-26T08:33:17;8.90;99.90
8436;DHT22;4255;48.730;9.156;2023-03-26T08:35:44;9.00;99.90
8436;DHT22;4255;48.730;9.156;2023-03-26T08:38:11;8.90;99.90
8436;DHT22;4255;48.730;9.156;2023-03-26T08:43:25;8.80;99.90
8436;DHT22;4255;48.730;9.156;2023-03-26T08:56:36;9.20;99.90
8436;DHT22;4255;48.730;9.156;2023-03-26T09:02:03;9.60;99.90
8436;DHT22;4255;48.730;9.156;2023-03-26T09:04:56;9.60;99.90
8436;DHT22;4255;48.730;9.156;2023-03-26T09:29:06;10.50;99.90
8436;DHT22;4255;48.730;9.156;2023-03-26T09:40:19;11.30;99.90
8436;DHT22;4255;48.730;9.156;2023-03-26T09:43:19;11.40;99.90
8436;DHT22;4255;48.730;9.156;2023-03-26T09:48:30;11.50;99.90
8436;DHT22;4255;48.730;9.156;2023-03-26T10:00:02;12.40;99.90
8436;DHT22;4255;48.730;9.156;2023-03-26T10:02:42;12.50;99.90
8436;DHT22;4255;48.730;9.156;2023-03-26T10:05:34;12.40;99.90
8436;DHT22;4255;48.730;9.156;2023-03-26T10:10:57;12.40;99.90
8436;DHT22;4255;48.730;9.156;2023-03-26T10:13:27;12.30;99.90
8436;DHT22;4255;48.730;9.156;2023-03-26T10:22:01;12.60;99.90
8436;DHT22;4255;48.730;9.156;2023-03-26T10:32:57;12.90;99.90
8436;DHT22;4255;48.730;9.156;2023-03-26T10:43:36;11.80;99.90
8436;DHT22;4255;48.730;9.156;2023-03-26T10:51:22;12.10;99.90
8436;DHT22;4255;48.730;9.156;2023-03-26T10:56:27;12.50;99.90
8436;DHT22;4255;48.730;9.156;2023-03-26T10:58:54;12.80;99.90
8436;DHT22;4255;48.730;9.156;2023-03-26T11:04:35;12.40;99.90
8436;DHT22;4255;48.730;9.156;2023-03-26T11:10:11;11.90;99.90
8436;DHT22;4255;48.730;9.156;2023-03-26T11:12:51;11.70;99.90
8436;DHT22;4255;48.730;9.156;2023-03-26T11:18:15;12.40;99.90
8436;DHT22;4255;48.730;9.156;2023-03-26T11:34:02;13.20;99.90
8436;DHT22;4255;48.730;9.156;2023-03-26T11:36:34;13.30;99.90
8436;DHT22;4255;48.730;9.156;2023-03-26T11:39:04;13.30;99.90
8436;DHT22;4255;48.730;9.156;2023-03-26T11:41:33;13.20;99.90
8436;DHT22;4255;48.730;9.156;2023-03-26T11:44:02;13.20;99.90
8436;DHT22;4255;48.730;9.156;2023-03-26T11:46:31;13.20;99.90
8436;DHT22;4255;48.730;9.156;2023-03-26T11:49:02;13.60;99.90
8436;DHT22;4255;48.730;9.156;2023-03-26T11:51:49;13.70;99.90
8436;DHT22;4255;48.730;9.156;2023-03-26T11:54:15;13.80;99.90
8436;DHT22;4255;48.730;9.156;2023-03-26T11:57:05;14.30;99.90
8436;DHT22;4255;48.730;9.156;2023-03-26T11:59:48;14.20;99.90
8436;DHT22;4255;48.730;9.156;2023-03-26T12:04:52;14.00;99.90
8436;DHT22;4255;48.730;9.156;2023-03-26T12:07:32;14.20;99.90
8436;DHT22;4255;48.730;9.156;2023-03-26T12:10:05;14.30;99.90
8436;DHT22;4255;48.730;9.156;2023-03-26T12:12:36;14.50;99.90
8436;DHT22;4255;48.730;9.156;2023-03-26T12:15:04;14.50;99.90
8436;DHT22;4255;48.730;9.156;2023-03-26T12:17:31;14.50;99.90
8436;DHT22;4255;48.730;9.156;2023-03-26T12:19:58;14.30;99.90
8436;DHT22;4255;48.730;9.156;2023-03-26T12:22:43;14.30;99.90
8436;DHT22;4255;48.730;9.156;2023-03-26T12:25:15;14.40;99.90
8436;DHT22;4255;48.730;9.156;2023-03-26T12:27:47;14.50;99.90
8436;DHT22;4255;48.730;9.156;2023-03-26T12:30:25;14.20;99.90
8436;DHT22;4255;48.730;9.156;2023-03-26T12:32:59;14.10;99.90
8436;DHT22;4255;48.730;9.156;2023-03-26T12:35:29;14.30;99.90
8436;DHT22;4255;48.730;9.156;2023-03-26T12:40:41;14.70;99.90
8436;DHT22;4255;48.730;9.156;2023-03-26T12:43:22;15.00;99.90
8436;DHT22;4255;48.730;9.156;2023-03-26T12:45:54;15.20;99.90
8436;DHT22;4255;48.730;9.156;2023-03-26T12:48:20;15.20;99.90
8436;DHT22;4255;48.730;9.156;2023-03-26T12:56:08;14.90;99.90
8436;DHT22;4255;48.730;9.156;2023-03-26T13:06:44;14.50;99.90
8436;DHT22;4255;48.730;9.156;2023-03-26T13:09:31;14.60;99.90
8436;DHT22;4255;48.730;9.156;2023-03-26T13:18:09;14.10;99.90
8436;DHT22;4255;48.730;9.156;2023-03-26T13:26:36;15.10;99.90
8436;DHT22;4255;48.730;9.156;2023-03-26T13:29:31;15.20;96.80
8436;DHT22;4255;48.730;9.156;2023-03-26T13:33:00;15.10;95.40
8436;DHT22;4255;48.730;9.156;2023-03-26T13:35:26;15.10;95.70
8436;DHT22;4255;48.730;9.156;2023-03-26T13:40:33;14.40;94.00
8436;DHT22;4255;48.730;9.156;2023-03-26T13:48:48;14.40;93.70
8436;DHT22;4255;48.730;9.156;2023-03-26T13:54:15;13.90;94.90
8436;DHT22;4255;48.730;9.156;2023-03-26T13:56:48;13.60;95.20
8436;DHT22;4255;48.730;9.156;2023-03-26T13:59:19;13.60;95.70
8436;DHT22;4255;48.730;9.156;2023-03-26T14:01:51;13.80;96.40
8436;DHT22;4255;48.730;9.156;2023-03-26T14:04:46;13.80;96.50
8436;DHT22;4255;48.730;9.156;2023-03-26T14:07:18;13.90;96.50
8436;DHT22;4255;48.730;9.156;2023-03-26T14:10:14;13.90;97.30
8436;DHT22;4255;48.730;9.156;2023-03-26T14:15:31;13.70;97.80
8436;DHT22;4255;48.730;9.156;2023-03-26T14:29:58;11.10;99.90
8436;DHT22;4255;48.730;9.156;2023-03-26T14:35:58;9.90;99.90
8436;DHT22;4255;48.730;9.156;2023-03-26T14:41:23;9.00;99.90
8436;DHT22;4255;48.730;9.156;2023-03-26T14:46:52;8.80;99.90
8436;DHT22;4255;48.730;9.156;2023-03-26T14:55:04;9.30;99.90
8436;DHT22;4255;48.730;9.156;2023-03-26T15:12:08;9.70;99.90
8436;DHT22;4255;48.730;9.156;2023-03-26T15:29:11;9.30;99.90
8436;DHT22;4255;48.730;9.156;2023-03-26T15:45:30;8.20;99.90
8436;DHT22;4255;48.730;9.156;2023-03-26T16:04:34;7.80;99.90
8436;DHT22;4255;48.730;9.156;2023-03-26T16:08:10;8.10;99.90
8436;DHT22;4255;48.730;9.156;2023-03-26T16:12:57;8.30;99.90
8436;DHT22;4255;48.730;9.156;2023-03-26T16:15:39;8.20;99.90
8436;DHT22;4255;48.730;9.156;2023-03-26T16:23:26;8.10;99.90
8436;DHT22;4255;48.730;9.156;2023-03-26T16:31:23;8.30;99.90
8436;DHT22;4255;48.730;9.156;2023-03-26T16:33:57;8.30;99.90
8436;DHT22;4255;48.730;9.156;2023-03-26T16:36:41;8.30;99.90
8436;DHT22;4255;48.730;9.156;2023-03-26T16:39:11;8.30;99.90
8436;DHT22;4255;48.730;9.156;2023-03-26T16:51:56;7.70;99.90
8436;DHT22;4255;48.730;9.156;2023-03-26T16:54:44;7.70;99.90
8436;DHT22;4255;48.730;9.156;2023-03-26T16:57:25;7.70;99.90
8436;DHT22;4255;48.730;9.156;2023-03-26T17:02:32;7.50;99.90
8436;DHT22;4255;48.730;9.156;2023-03-26T17:05:18;7.60;99.90
8436;DHT22;4255;48.730;9.156;2023-03-26T17:08:03;7.60;99.90
8436;DHT22;4255;48.730;9.156;2023-03-26T17:10:44;7.40;99.90
8436;DHT22;4255;48.730;9.156;2023-03-26T17:13:21;7.40;99.90
8436;DHT22;4255;48.730;9.156;2023-03-26T17:16:15;7.30;99.90
8436;DHT22;4255;48.730;9.156;2023-03-26T17:21:33;7.40;99.90
8436;DHT22;4255;48.730;9.156;2023-03-26T17:24:17;7.40;99.90
8436;DHT22;4255;48.730;9.156;2023-03-26T17:29:25;7.40;99.90
8436;DHT22;4255;48.730;9.156;2023-03-26T17:31:59;7.50;99.90
8436;DHT22;4255;48.730;9.156;2023-03-26T17:37:24;7.50;99.90
8436;DHT22;4255;48.730;9.156;2023-03-26T17:42:36;7.50;99.90
8436;DHT22;4255;48.730;9.156;2023-03-26T17:45:19;7.50;99.90
8436;DHT22;4255;48.730;9.156;2023-03-26T17:47:51;7.70;99.90
8436;DHT22;4255;48.730;9.156;2023-03-26T17:50:40;7.70;99.90
8436;DHT22;4255;48.730;9.156;2023-03-26T17:53:34;7.70;99.90
8436;DHT22;4255;48.730;9.156;2023-03-26T17:56:04;7.80;99.90
8436;DHT22;4255;48.730;9.156;2023-03-26T17:58:41;7.70;99.90
8436;DHT22;4255;48.730;9.156;2023-03-26T18:03:35;7.50;99.90
8436;DHT22;4255;48.730;9.156;2023-03-26T18:06:13;7.50;99.90
8436;DHT22;4255;48.730;9.156;2023-03-26T18:11:52;7.50;99.90
8436;DHT22;4255;48.730;9.156;2023-03-26T18:16:55;7.30;99.90
8436;DHT22;4255;48.730;9.156;2023-03-26T18:19:22;7.20;99.90
8436;DHT22;4255;48.730;9.156;2023-03-26T18:21:56;7.20;99.90
8436;DHT22;4255;48.730;9.156;2023-03-26T18:24:36;7.10;99.90
8436;DHT22;4255;48.730;9.156;2023-03-26T18:27:06;7.00;99.90
8436;DHT22;4255;48.730;9.156;2023-03-26T18:29:34;7.10;99.90
8436;DHT22;4255;48.730;9.156;2023-03-26T18:32:21;7.10;99.90
8436;DHT22;4255;48.730;9.156;2023-03-26T18:34:50;7.20;99.90
8436;DHT22;4255;48.730;9.156;2023-03-26T18:37:23;7.10;99.90
8436;DHT22;4255;48.730;9.156;2023-03-26T18:42:43;7.00;99.90
8436;DHT22;4255;48.730;9.156;2023-03-26T18:45:35;6.90;99.90
8436;DHT22;4255;48.730;9.156;2023-03-26T18:48:05;7.10;99.90
8436;DHT22;4255;48.730;9.156;2023-03-26T18:50:37;7.20;99.90
8436;DHT22;4255;48.730;9.156;2023-03-26T18:53:25;7.40;99.90
8436;DHT22;4255;48.730;9.156;2023-03-26T18:55:54;7.40;99.90
8436;DHT22;4255;48.730;9.156;2023-03-26T19:00:45;7.50;99.90
8436;DHT22;4255;48.730;9.156;2023-03-26T19:03:15;7.30;99.90
8436;DHT22;4255;48.730;9.156;2023-03-26T19:05:42;7.00;99.90
8436;DHT22;4255;48.730;9.156;2023-03-26T19:08:08;6.90;99.90
8436;DHT22;4255;48.730;9.156;2023-03-26T19:10:35;6.90;99.90
8436;DHT22;4255;48.730;9.156;2023-03-26T19:13:02;7.10;99.90
8436;DHT22;4255;48.730;9.156;2023-03-26T19:15:33;7.00;99.90
8436;DHT22;4255;48.730;9.156;2023-03-26T19:18:01;7.10;99.90
8436;DHT22;4255;48.730;9.156;2023-03-26T19:23:17;7.10;99.90
8436;DHT22;4255;48.730;9.156;2023-03-26T19:25:49;7.20;99.90
8436;DHT22;4255;48.730;9.156;2023-03-26T19:28:29;7.30;99.90
8436;DHT22;4255;48.730;9.156;2023-03-26T19:34:12;7.30;99.90
8436;DHT22;4255;48.730;9.156;2023-03-26T19:37:00;7.20;99.90
8436;DHT22;4255;48.730;9.156;2023-03-26T19:39:44;7.30;99.90
8436;DHT22;4255;48.730;9.156;2023-03-26T19:42:13;7.20;99.90
8436;DHT22;4255;48.730;9.156;2023-03-26T19:44:40;6.90;99.90
8436;DHT22;4255;48.730;9.156;2023-03-26T19:47:21;6.80;99.90
8436;DHT22;4255;48.730;9.156;2023-03-26T19:49:55;6.80;99.90
8436;DHT22;4255;48.730;9.156;2023-03-26T19:52:27;6.60;99.90
8436;DHT22;4255;48.730;9.156;2023-03-26T19:55:03;6.70;99.90
8436;DHT22;4255;48.730;9.156;2023-03-26T19:57:39;6.80;99.90
8436;DHT22;4255;48.730;9.156;2023-03-26T20:00:06;6.80;99.90
8436;DHT22;4255;48.730;9.156;2023-03-26T20:02:42;6.70;99.90
8436;DHT22;4255;48.730;9.156;2023-03-26T20:05:18;6.60;99.90
8436;DHT22;4255;48.730;9.156;2023-03-26T20:07:47;6.60;99.90
8436;DHT22;4255;48.730;9.156;2023-03-26T20:10:15;6.50;99.90
8436;DHT22;4255;48.730;9.156;2023-03-26T20:12:41;6.60;99.90
8436;DHT22;4255;48.730;9.156;2023-03-26T20:15:25;6.60;99.90
8436;DHT22;4255;48.730;9.156;2023-03-26T20:17:52;6.70;99.90
8436;DHT22;4255;48.730;9.156;2023-03-26T20:20:22;6.60;99.90
8436;DHT22;4255;48.730;9.156;2023-03-26T20:22:54;6.70;99.90
8436;DHT22;4255;48.730;9.156;2023-03-26T20:25:27;6.70;99.90
8436;DHT22;4255;48.730;9.156;2023-03-26T20:27:53;6.60;99.90
8436;DHT22;4255;48.730;9.156;2023-03-26T20:30:20;6.60;99.90
8436;DHT22;4255;48.730;9.156;2023-03-26T20:32:46;6.60;99.90
8436;DHT22;4255;48.730;9.156;2023-03-26T20:35:20;6.80;99.90
8436;DHT22;4255;48.730;9.156;2023-03-26T20:37:47;6.80;99.90
8436;DHT22;4255;48.730;9.156;2023-03-26T20:40:13;6.60;99.90
8436;DHT22;4255;48.730;9.156;2023-03-26T20:42:40;6.80;99.90
8436;DHT22;4255;48.730;9.156;2023-03-26T20:45:19;6.70;99.90
8436;DHT22;4255;48.730;9.156;2023-03-26T20:47:47;6.80;99.90
8436;DHT22;4255;48.730;9.156;2023-03-26T20:50:18;6.60;99.90
8436;DHT22;4255;48.730;9.156;2023-03-26T20:52:48;6.60;99.90
8436;DHT22;4255;48.730;9.156;2023-03-26T20:55:16;6.60;99.90
8436;DHT22;4255;48.730;9.156;2023-03-26T20:57:45;6.50;99.90
8436;DHT22;4255;48.730;9.156;2023-03-26T21:00:13;6.20;99.90
8436;DHT22;4255;48.730;9.156;2023-03-26T21:02:49;6.20;99.90
8436;DHT22;4255;48.730;9.156;2023-03-26T21:05:22;6.20;99.90
8436;DHT22;4255;48.730;9.156;2023-03-26T21:07:54;6.20;99.90
8436;DHT22;4255;48.730;9.156;2023-03-26T21:10:21;6.40;99.90
8436;DHT22;4255;48.730;9.156;2023-03-26T21:12:56;6.40;99.90
8436;DHT22;4255;48.730;9.156;2023-03-26T21:15:23;6.40;99.90
8436;DHT22;4255;48.730;9.156;2023-03-26T21:17:50;6.50;99.90
8436;DHT22;4255;48.730;9.156;2023-03-26T21:20:17;6.40;99.90
8436;DHT22;4255;48.730;9.156;2023-03-26T21:23:12;6.30;99.90
8436;DHT22;4255;48.730;9.156;2023-03-26T21:28:33;6.70;99.90
8436;DHT22;4255;48.730;9.156;2023-03-26T21:31:00;6.90;99.90
8436;DHT22;4255;48.730;9.156;2023-03-26T21:33:26;7.10;99.90
8436;DHT22;4255;48.730;9.156;2023-03-26T21:35:53;7.00;99.90
8436;DHT22;4255;48.730;9.156;2023-03-26T21:38:22;7.00;99.90
8436;DHT22;4255;48.730;9.156;2023-03-26T21:40:59;7.00;99.90
8436;DHT22;4255;48.730;9.156;2023-03-26T21:43:26;7.20;99.90
8436;DHT22;4255;48.730;9.156;2023-03-26T21:45:52;7.20;99.90
8436;DHT22;4255;48.730;9.156;2023-03-26T21:48:19;7.10;99.90
8436;DHT22;4255;48.730;9.156;2023-03-26T21:50:45;7.00;99.90
8436;DHT22;4255;48.730;9.156;2023-03-26T21:53:13;7.20;99.90
8436;DHT22;4255;48.730;9.156;2023-03-26T21:55:56;7.40;99.90
8436;DHT22;4255;48.730;9.156;2023-03-26T21:58:28;7.40;99.90
8436;DHT22;4255;48.730;9.156;2023-03-26T22:01:16;7.10;99.90
8436;DHT22;4255;48.730;9.156;2023-03-26T22:09:02;6.90;99.90
8436;DHT22;4255;48.730;9.156;2023-03-26T22:11:29;6.80;99.90
8436;DHT22;4255;48.730;9.156;2023-03-26T22:13:55;6.80;99.90
8436;DHT22;4255;48.730;9.156;2023-03-26T22:16:21;6.90;99.90
8436;DHT22;4255;48.730;9.156;2023-03-26T22:18:51;6.80;99.90
8436;DHT22;4255;48.730;9.156;2023-03-26T22:21:19;6.90;99.90
8436;DHT22;4255;48.730;9.156;2023-03-26T22:23:45;6.90;99.90
8436;DHT22;4255;48.730;9.156;2023-03-26T22:26:14;6.90;99.90
8436;DHT22;4255;48.730;9.156;2023-03-26T22:28:40;6.80;99.90
8436;DHT22;4255;48.730;9.156;2023-03-26T22:31:06;6.60;99.90
8436;DHT22;4255;48.730;9.156;2023-03-26T22:33:32;6.70;99.90
8436;DHT22;4255;48.730;9.156;2023-03-26T22:36:00;6.70;99.90